Time;durP1;ratioP1;P1;durP2;ratioP2;P2;SDS_P1;SDS_P2;PMS_P1;PMS_P2;Temp;Humidity;BMP_temperature;BMP_pressure;BME280_temperature;BME280_humidity;BME280_pressure;Samples;Min_cycle;Max_cycle;Signal;HPM_P1;HPM_P2
2021/11/11 00:00:41;;;;;;;25.33;16.20;;;7.30;99.90;;;;;;5107535;28;20032;-43
2021/11/11 00:03:06;;;;;;;27.20;17.27;;;7.30;99.90;;;;;;5107968;28;20030;-43
2021/11/11 00:05:32;;;;;;;26.02;16.63;;;7.30;99.90;;;;;;5107551;28;20040;-42
2021/11/11 00:07:59;;;;;;;27.63;17.00;;;7.20;99.90;;;;;;5107802;28;20022;-42
2021/11/11 00:10:26;;;;;;;28.02;16.55;;;7.20;99.90;;;;;;5107953;28;20080;-42
2021/11/11 00:12:52;;;;;;;28.85;16.92;;;7.20;99.90;;;;;;5107631;28;20024;-42
2021/11/11 00:15:18;;;;;;;26.80;16.65;;;7.20;99.90;;;;;;5107810;28;20130;-42
2021/11/11 00:17:46;;;;;;;26.33;16.85;;;7.20;99.90;;;;;;5107180;28;20549;-42
2021/11/11 00:20:14;;;;;;;27.58;17.92;;;7.10;99.90;;;;;;5107824;28;20114;-42
2021/11/11 00:22:41;;;;;;;27.02;17.98;;;7.10;99.90;;;;;;5107368;28;20020;-43
2021/11/11 00:25:08;;;;;;;31.02;17.77;;;7.10;99.90;;;;;;5107388;28;20042;-42
2021/11/11 00:27:34;;;;;;;27.10;16.88;;;7.10;99.90;;;;;;5106437;28;20487;-43
2021/11/11 00:30:00;;;;;;;27.70;17.25;;;7.10;99.90;;;;;;5107079;28;20555;-43
2021/11/11 00:32:29;;;;;;;27.70;17.77;;;7.10;99.90;;;;;;5107539;28;20058;-43
2021/11/11 00:34:54;;;;;;;27.77;18.27;;;7.00;99.90;;;;;;5107594;28;20016;-43
2021/11/11 00:37:21;;;;;;;30.02;18.60;;;7.00;99.90;;;;;;5107537;27;20023;-43
2021/11/11 00:39:47;;;;;;;29.73;18.02;;;7.00;99.90;;;;;;5107770;28;20098;-43
2021/11/11 00:42:13;;;;;;;26.48;17.77;;;7.00;99.90;;;;;;5106354;28;20506;-43
2021/11/11 00:44:38;;;;;;;27.40;17.13;;;7.00;99.90;;;;;;5107193;28;20027;-43
2021/11/11 00:47:04;;;;;;;31.50;18.00;;;7.00;99.90;;;;;;5107742;28;20553;-43
2021/11/11 00:49:30;;;;;;;27.30;17.33;;;7.00;99.90;;;;;;5106859;28;20035;-43
2021/11/11 00:51:55;;;;;;;27.77;17.35;;;7.00;99.90;;;;;;5107333;28;20016;-43
2021/11/11 00:54:21;;;;;;;29.15;17.85;;;7.00;99.90;;;;;;5106993;28;20072;-44
2021/11/11 00:56:47;;;;;;;27.23;17.10;;;7.00;99.90;;;;;;5106571;28;20466;-44
2021/11/11 00:59:13;;;;;;;31.27;17.48;;;7.00;99.90;;;;;;5107544;28;20022;-44
2021/11/11 01:01:39;;;;;;;31.02;17.85;;;7.00;99.90;;;;;;5107128;28;20401;-44
2021/11/11 01:04:05;;;;;;;26.45;17.20;;;7.10;99.90;;;;;;5106369;28;20489;-43
2021/11/11 01:06:30;;;;;;;26.63;16.85;;;7.10;99.90;;;;;;5106841;28;20062;-44
2021/11/11 01:08:57;;;;;;;28.08;17.45;;;7.10;99.90;;;;;;5106703;28;20031;-44
2021/11/11 01:11:23;;;;;;;27.80;17.45;;;7.20;99.90;;;;;;5107387;28;20475;-43
2021/11/11 01:13:49;;;;;;;26.30;17.42;;;7.20;99.90;;;;;;5106700;28;20031;-43
2021/11/11 01:16:15;;;;;;;27.85;17.83;;;7.30;99.90;;;;;;5107138;28;20027;-43
2021/11/11 01:18:40;;;;;;;32.25;18.40;;;7.30;99.90;;;;;;5106310;28;20049;-43
2021/11/11 01:21:07;;;;;;;29.13;17.77;;;7.40;99.90;;;;;;5106604;28;20497;-42
2021/11/11 01:23:34;;;;;;;25.48;16.00;;;7.40;99.90;;;;;;5106679;28;20035;-43
2021/11/11 01:26:00;;;;;;;26.67;17.50;;;7.40;99.90;;;;;;5106102;28;20046;-42
2021/11/11 01:28:26;;;;;;;28.58;17.73;;;7.50;99.90;;;;;;5107341;28;20026;-42
2021/11/11 01:30:51;;;;;;;26.65;17.17;;;7.50;99.90;;;;;;5105830;28;20019;-42
2021/11/11 01:33:18;;;;;;;25.45;17.15;;;7.50;99.90;;;;;;5106946;28;20410;-43
2021/11/11 01:35:43;;;;;;;26.35;17.02;;;7.60;99.90;;;;;;5106590;28;20626;-43
2021/11/11 01:38:09;;;;;;;25.15;16.52;;;7.60;99.90;;;;;;5108927;28;20112;-43
2021/11/11 01:40:35;;;;;;;23.58;15.43;;;7.70;99.90;;;;;;5110543;28;20012;-43
2021/11/11 01:43:05;;;;;;;29.45;18.17;;;7.70;99.90;;;;;;5110742;28;20051;-43
2021/11/11 01:45:42;;;;;;;25.70;16.13;;;7.70;99.90;;;;;;5109929;28;20031;-43
2021/11/11 01:48:10;;;;;;;26.25;16.52;;;7.70;99.90;;;;;;5111194;28;20050;-43
2021/11/11 01:50:39;;;;;;;25.80;15.43;;;7.70;99.90;;;;;;5110281;28;20024;-43
2021/11/11 01:53:06;;;;;;;26.08;16.33;;;7.80;99.90;;;;;;5109627;28;20509;-43
2021/11/11 01:55:32;;;;;;;25.27;16.05;;;7.70;99.90;;;;;;5110456;28;20023;-43
2021/11/11 01:57:59;;;;;;;26.75;16.95;;;7.80;99.90;;;;;;5110553;28;20038;-42
2021/11/11 02:00:31;;;;;;;28.85;16.48;;;7.80;99.90;;;;;;5109929;28;20119;-42
2021/11/11 02:02:59;;;;;;;23.00;16.02;;;7.80;99.90;;;;;;5110582;28;20081;-43
2021/11/11 02:05:28;;;;;;;25.58;15.90;;;7.80;99.90;;;;;;5109990;28;20397;-43
2021/11/11 02:07:54;;;;;;;24.38;15.13;;;7.80;99.90;;;;;;5106284;28;20016;-43
2021/11/11 02:10:21;;;;;;;26.92;16.20;;;7.80;99.90;;;;;;5111401;27;20030;-42
2021/11/11 02:12:48;;;;;;;24.38;16.95;;;7.80;99.90;;;;;;5109348;28;20023;-43
2021/11/11 02:15:15;;;;;;;23.70;15.35;;;7.80;99.90;;;;;;5110406;28;20047;-43
2021/11/11 02:17:41;;;;;;;22.67;15.27;;;7.80;99.90;;;;;;5109728;28;20394;-43
2021/11/11 02:20:12;;;;;;;21.25;14.90;;;7.80;99.90;;;;;;5109867;28;20027;-43
2021/11/11 02:22:38;;;;;;;22.65;15.35;;;7.80;99.90;;;;;;5109871;28;20020;-43
2021/11/11 02:25:12;;;;;;;24.35;15.30;;;7.80;99.90;;;;;;5109938;28;20060;-43
2021/11/11 02:27:41;;;;;;;24.35;15.95;;;7.80;99.90;;;;;;5109431;28;20119;-43
2021/11/11 02:30:09;;;;;;;27.23;16.38;;;7.80;99.90;;;;;;5109881;28;20110;-43
2021/11/11 02:32:35;;;;;;;25.33;16.15;;;7.80;99.90;;;;;;5109234;28;20028;-43
2021/11/11 02:35:02;;;;;;;27.55;16.38;;;7.80;99.90;;;;;;5109540;28;20375;-43
2021/11/11 02:37:32;;;;;;;22.55;15.40;;;7.80;99.90;;;;;;5107878;28;20066;-43
2021/11/11 02:39:59;;;;;;;23.52;15.38;;;7.80;99.90;;;;;;5109638;28;20429;-43
2021/11/11 02:42:25;;;;;;;30.52;17.92;;;7.80;99.90;;;;;;5109040;27;20027;-43
2021/11/11 02:44:54;;;;;;;25.77;17.10;;;7.90;99.90;;;;;;5109056;28;20024;-43
2021/11/11 02:47:22;;;;;;;26.45;17.67;;;7.90;99.90;;;;;;5109448;27;20054;-43
2021/11/11 02:49:48;;;;;;;25.83;17.67;;;7.90;99.90;;;;;;5109081;28;20027;-43
2021/11/11 02:52:15;;;;;;;26.00;18.52;;;7.90;99.90;;;;;;5109735;28;20192;-42
2021/11/11 02:54:41;;;;;;;27.63;17.90;;;7.90;99.90;;;;;;5108863;28;20015;-43
2021/11/11 02:57:25;;;;;;;25.30;17.25;;;7.90;99.90;;;;;;5108795;28;20035;-43
2021/11/11 02:59:53;;;;;;;28.15;18.77;;;7.90;99.90;;;;;;5107981;28;20023;-42
2021/11/11 03:02:31;;;;;;;27.48;18.10;;;7.80;99.90;;;;;;5108916;28;20034;-42
2021/11/11 03:04:57;;;;;;;26.48;17.00;;;7.80;99.90;;;;;;5107101;28;20471;-42
2021/11/11 03:07:24;;;;;;;30.40;17.75;;;7.70;99.90;;;;;;5108886;28;20007;-43
2021/11/11 03:09:50;;;;;;;30.15;19.20;;;7.70;99.90;;;;;;5108238;28;20383;-42
2021/11/11 03:12:17;;;;;;;29.35;18.17;;;7.70;99.90;;;;;;5109631;28;20035;-43
2021/11/11 03:14:44;;;;;;;29.42;18.70;;;7.70;99.90;;;;;;5108850;28;20054;-43
2021/11/11 03:17:11;;;;;;;29.85;18.73;;;7.70;99.90;;;;;;5108542;28;20160;-43
2021/11/11 03:19:38;;;;;;;25.15;17.48;;;7.70;99.90;;;;;;5108436;28;20019;-43
2021/11/11 03:22:06;;;;;;;28.45;18.17;;;7.70;99.90;;;;;;5089309;28;20016;-42
2021/11/11 03:24:38;;;;;;;27.63;18.35;;;7.70;99.90;;;;;;5102451;28;20050;-43
2021/11/11 03:27:04;;;;;;;29.70;18.13;;;7.70;99.90;;;;;;5108886;28;20038;-43
2021/11/11 03:29:30;;;;;;;24.35;17.05;;;7.70;99.90;;;;;;5108348;27;20023;-43
2021/11/11 03:31:57;;;;;;;31.23;18.88;;;7.70;99.90;;;;;;5108316;28;20023;-43
2021/11/11 03:34:23;;;;;;;32.85;18.75;;;7.70;99.90;;;;;;5108459;28;20041;-45
2021/11/11 03:36:53;;;;;;;28.95;18.15;;;7.70;99.90;;;;;;5108258;28;20024;-43
2021/11/11 03:39:22;;;;;;;28.73;18.55;;;7.70;99.90;;;;;;5108666;28;20024;-42
2021/11/11 03:41:50;;;;;;;29.65;19.42;;;7.70;99.90;;;;;;5108798;28;20042;-42
2021/11/11 03:44:18;;;;;;;33.60;18.13;;;7.70;99.90;;;;;;5107931;28;20027;-42
2021/11/11 03:46:45;;;;;;;28.33;18.90;;;7.80;99.90;;;;;;5107950;28;20043;-43
2021/11/11 03:49:18;;;;;;;30.65;19.08;;;7.80;99.90;;;;;;5108324;28;20012;-42
2021/11/11 03:51:44;;;;;;;28.25;18.55;;;7.70;99.90;;;;;;5107836;28;20039;-43
2021/11/11 03:54:13;;;;;;;32.25;19.27;;;7.80;99.90;;;;;;5108525;27;20035;-43
2021/11/11 03:56:40;;;;;;;34.28;19.45;;;7.80;99.90;;;;;;5108319;28;20039;-42
2021/11/11 03:59:06;;;;;;;32.67;20.15;;;7.80;99.90;;;;;;5107524;28;20510;-42
2021/11/11 04:01:32;;;;;;;31.25;18.92;;;7.80;99.90;;;;;;5108205;28;20168;-43
2021/11/11 04:04:00;;;;;;;27.25;18.27;;;7.80;99.90;;;;;;5108128;28;20028;-43
2021/11/11 04:06:26;;;;;;;27.92;17.65;;;7.80;99.90;;;;;;5107023;28;20035;-43
2021/11/11 04:08:54;;;;;;;28.42;18.00;;;7.80;99.90;;;;;;5107936;28;20360;-43
2021/11/11 04:11:20;;;;;;;29.05;18.40;;;7.80;99.90;;;;;;5108584;28;20032;-42
2021/11/11 04:13:46;;;;;;;31.52;18.83;;;7.80;99.90;;;;;;5106857;28;20026;-43
2021/11/11 04:16:11;;;;;;;28.75;17.95;;;7.80;99.90;;;;;;5107594;28;20023;-43
2021/11/11 04:18:37;;;;;;;29.92;18.58;;;7.80;99.90;;;;;;5108249;28;20035;-44
2021/11/11 04:21:06;;;;;;;26.77;17.92;;;7.80;99.90;;;;;;5106798;28;20023;-43
2021/11/11 04:23:31;;;;;;;30.25;17.80;;;7.80;99.90;;;;;;5107808;27;20053;-43
2021/11/11 04:26:13;;;;;;;27.50;18.08;;;7.80;99.90;;;;;;5107278;28;20124;-43
2021/11/11 04:28:47;;;;;;;30.58;19.00;;;7.80;99.90;;;;;;5107498;28;20076;-44
2021/11/11 04:34:08;;;;;;;30.35;20.10;;;7.80;99.90;;;;;;5082464;28;20040;-43
2021/11/11 04:42:04;;;;;;;30.38;19.10;;;7.90;99.90;;;;;;5106128;28;20043;-43
2021/11/11 04:50:25;;;;;;;28.95;18.10;;;7.90;99.90;;;;;;5107063;28;20563;-43
2021/11/11 04:59:28;;;;;;;26.85;17.55;;;7.90;99.90;;;;;;5106776;28;20032;-43
2021/11/11 05:03:44;;;;;;;30.20;19.15;;;7.90;99.90;;;;;;5106817;28;20035;-42
2021/11/11 05:06:11;;;;;;;30.85;18.27;;;7.90;99.90;;;;;;5107199;28;20409;-43
2021/11/11 05:08:37;;;;;;;33.53;18.98;;;7.90;99.90;;;;;;5106017;28;20027;-43
2021/11/11 05:11:04;;;;;;;30.88;18.33;;;7.90;99.90;;;;;;5107135;28;20058;-43
2021/11/11 05:13:30;;;;;;;32.65;19.85;;;7.90;99.90;;;;;;5106294;28;20027;-43
2021/11/11 05:15:56;;;;;;;31.95;19.00;;;7.90;99.90;;;;;;5105787;28;20043;-43
2021/11/11 05:18:22;;;;;;;28.73;18.77;;;7.90;99.90;;;;;;5106935;28;20038;-43
2021/11/11 05:20:50;;;;;;;30.10;18.83;;;8.00;99.90;;;;;;5107098;28;20036;-43
2021/11/11 05:23:16;;;;;;;28.17;18.25;;;7.90;99.90;;;;;;5106122;28;20023;-43
2021/11/11 05:25:42;;;;;;;26.45;17.08;;;8.00;99.90;;;;;;5106911;28;20046;-42
2021/11/11 05:28:08;;;;;;;25.60;17.25;;;8.00;99.90;;;;;;5106677;28;20059;-43
2021/11/11 05:30:33;;;;;;;30.33;18.05;;;8.00;99.90;;;;;;5106248;28;20032;-43
2021/11/11 05:32:59;;;;;;;29.15;17.85;;;8.00;99.90;;;;;;5106460;28;20027;-43
2021/11/11 05:35:25;;;;;;;27.58;17.33;;;8.00;99.90;;;;;;5106626;28;20031;-43
2021/11/11 05:37:51;;;;;;;29.83;17.17;;;8.00;99.90;;;;;;5106016;28;20023;-43
2021/11/11 05:40:21;;;;;;;29.88;17.08;;;7.90;99.90;;;;;;5106578;28;20032;-43
2021/11/11 05:42:47;;;;;;;27.33;17.83;;;8.00;99.90;;;;;;5107029;28;20016;-43
2021/11/11 05:45:15;;;;;;;26.85;17.17;;;8.00;99.90;;;;;;5106064;28;20067;-43
2021/11/11 05:47:41;;;;;;;25.52;17.40;;;7.90;99.90;;;;;;5106495;28;20016;-42
2021/11/11 05:50:09;;;;;;;31.00;18.63;;;8.00;99.90;;;;;;5106418;28;20114;-43
2021/11/11 05:52:34;;;;;;;29.45;17.95;;;8.00;99.90;;;;;;5106586;28;20028;-42
2021/11/11 05:55:00;;;;;;;27.30;18.10;;;7.90;99.90;;;;;;5106026;28;20034;-43
2021/11/11 05:57:26;;;;;;;27.77;16.85;;;7.90;99.90;;;;;;5106610;28;20030;-43
2021/11/11 05:59:51;;;;;;;33.22;19.75;;;7.90;99.90;;;;;;5105864;28;20027;-42
2021/11/11 06:02:17;;;;;;;32.22;18.50;;;8.00;99.90;;;;;;5106907;28;20106;-43
2021/11/11 06:04:43;;;;;;;29.50;18.42;;;8.00;99.90;;;;;;5105963;28;20374;-43
2021/11/11 06:07:09;;;;;;;27.75;18.05;;;8.00;99.90;;;;;;5106415;28;20032;-43
2021/11/11 06:09:35;;;;;;;26.13;17.40;;;8.00;99.90;;;;;;5105941;28;20155;-43
2021/11/11 06:12:04;;;;;;;29.42;18.17;;;8.00;99.90;;;;;;5105812;28;20048;-43
2021/11/11 06:14:30;;;;;;;28.48;17.55;;;8.00;99.90;;;;;;5106003;28;20074;-42
2021/11/11 06:16:56;;;;;;;25.20;17.13;;;8.00;99.90;;;;;;5106215;28;20034;-42
2021/11/11 06:19:22;;;;;;;24.83;16.55;;;8.00;99.90;;;;;;5106086;28;20107;-42
2021/11/11 06:21:48;;;;;;;25.80;17.13;;;8.00;99.90;;;;;;5106617;28;20051;-43
2021/11/11 06:24:15;;;;;;;29.30;18.48;;;8.00;99.90;;;;;;5107192;28;20027;-43
2021/11/11 06:26:41;;;;;;;26.25;16.83;;;8.10;99.90;;;;;;5109155;28;20462;-44
2021/11/11 06:29:08;;;;;;;24.40;16.77;;;8.00;99.90;;;;;;5109623;28;20030;-43
2021/11/11 06:31:33;;;;;;;26.75;17.00;;;8.00;99.90;;;;;;5109819;28;20016;-43
2021/11/11 06:34:00;;;;;;;27.67;17.15;;;8.10;99.90;;;;;;5109604;28;20430;-43
2021/11/11 06:36:25;;;;;;;28.33;16.75;;;8.10;99.90;;;;;;5109318;28;20019;-44
2021/11/11 06:38:51;;;;;;;28.58;17.60;;;8.00;99.90;;;;;;5110036;28;20030;-43
2021/11/11 06:41:17;;;;;;;27.70;17.27;;;8.10;99.90;;;;;;5109151;28;20107;-43
2021/11/11 06:43:43;;;;;;;25.73;16.25;;;8.10;99.90;;;;;;5109710;28;20030;-43
2021/11/11 06:46:09;;;;;;;27.55;17.10;;;8.10;99.90;;;;;;5106873;28;20043;-42
2021/11/11 06:48:35;;;;;;;30.58;18.58;;;8.10;99.90;;;;;;5105995;28;20055;-42
2021/11/11 06:51:01;;;;;;;29.75;18.70;;;8.10;99.90;;;;;;5107583;28;20028;-43
2021/11/11 06:53:27;;;;;;;27.25;18.13;;;8.10;99.90;;;;;;5108171;28;20025;-43
2021/11/11 06:55:53;;;;;;;28.08;18.25;;;8.10;99.90;;;;;;5108742;28;20012;-43
2021/11/11 06:58:22;;;;;;;30.55;18.55;;;8.10;99.90;;;;;;5107160;27;20717;-45
2021/11/11 07:00:59;;;;;;;29.48;18.38;;;8.10;99.90;;;;;;5107926;28;20020;-42
2021/11/11 07:03:25;;;;;;;28.63;18.50;;;8.10;99.90;;;;;;5107909;28;20467;-43
2021/11/11 07:05:51;;;;;;;26.27;17.27;;;8.10;99.90;;;;;;5108289;28;20122;-43
2021/11/11 07:08:17;;;;;;;24.42;16.38;;;8.10;99.90;;;;;;5108207;28;20106;-43
2021/11/11 07:10:46;;;;;;;30.48;18.15;;;8.10;99.90;;;;;;5107283;28;20050;-43
2021/11/11 07:13:11;;;;;;;32.47;19.23;;;8.10;99.90;;;;;;5107639;28;20026;-44
2021/11/11 07:15:38;;;;;;;29.25;20.13;;;8.10;99.90;;;;;;5106836;28;20059;-43
2021/11/11 07:18:05;;;;;;;31.27;19.10;;;8.20;99.90;;;;;;5107812;28;20027;-43
2021/11/11 07:20:31;;;;;;;31.83;19.05;;;8.20;99.90;;;;;;5107569;28;20027;-43
2021/11/11 07:23:01;;;;;;;27.95;18.48;;;8.20;99.90;;;;;;5108051;28;20019;-43
2021/11/11 07:25:27;;;;;;;32.45;20.42;;;8.20;99.90;;;;;;5108279;28;20386;-43
2021/11/11 07:27:53;;;;;;;28.73;18.02;;;8.30;99.90;;;;;;5108493;28;20131;-43
2021/11/11 07:30:20;;;;;;;28.70;17.73;;;8.20;99.90;;;;;;5107684;28;20031;-43
2021/11/11 07:32:46;;;;;;;28.67;17.13;;;8.20;99.90;;;;;;5108249;28;20019;-43
2021/11/11 07:35:12;;;;;;;29.23;19.08;;;8.20;99.90;;;;;;5108170;28;20028;-43
2021/11/11 07:37:42;;;;;;;29.48;19.98;;;8.30;99.90;;;;;;5107345;28;20030;-42
2021/11/11 07:40:11;;;;;;;29.58;20.13;;;8.30;99.90;;;;;;5108006;28;20517;-43
2021/11/11 07:42:37;;;;;;;28.98;19.02;;;8.30;99.90;;;;;;5108145;28;20023;-44
2021/11/11 07:45:04;;;;;;;35.30;20.58;;;8.30;99.90;;;;;;5107557;28;20041;-44
2021/11/11 07:47:29;;;;;;;34.38;20.73;;;8.30;99.90;;;;;;5107971;28;20089;-44
2021/11/11 07:49:57;;;;;;;31.35;20.98;;;8.40;99.90;;;;;;5107457;28;20054;-44
2021/11/11 07:52:29;;;;;;;31.38;18.60;;;8.40;99.90;;;;;;5107918;28;20029;-44
2021/11/11 07:54:57;;;;;;;33.05;19.30;;;8.40;99.90;;;;;;5096808;28;20905;-44
2021/11/11 07:57:27;;;;;;;29.83;18.88;;;8.50;99.90;;;;;;5107100;28;20024;-43
2021/11/11 07:59:56;;;;;;;31.15;18.63;;;8.50;99.90;;;;;;5107705;28;20102;-43
2021/11/11 08:02:22;;;;;;;27.00;18.33;;;8.50;99.90;;;;;;5108203;28;20185;-45
2021/11/11 08:04:49;;;;;;;28.13;17.50;;;8.60;99.90;;;;;;5103949;28;20036;-44
2021/11/11 08:07:17;;;;;;;29.98;18.85;;;8.60;99.90;;;;;;5108154;28;20047;-44
2021/11/11 08:09:44;;;;;;;32.75;18.95;;;8.60;99.90;;;;;;5108071;28;20035;-43
2021/11/11 08:12:10;;;;;;;28.80;18.85;;;8.60;99.90;;;;;;5107038;28;20066;-43
2021/11/11 08:14:35;;;;;;;27.00;17.77;;;8.70;99.90;;;;;;5106897;28;20063;-43
2021/11/11 08:17:01;;;;;;;29.25;19.35;;;8.70;99.90;;;;;;5107622;28;20016;-43
2021/11/11 08:19:26;;;;;;;28.05;18.88;;;8.70;99.90;;;;;;5106988;28;20470;-43
2021/11/11 08:21:52;;;;;;;28.48;18.92;;;8.70;99.90;;;;;;5107102;28;20122;-44
2021/11/11 08:24:21;;;;;;;28.48;18.20;;;8.70;99.90;;;;;;5107511;28;20529;-43
2021/11/11 08:26:49;;;;;;;31.25;20.75;;;8.70;99.90;;;;;;5106837;28;20032;-42
2021/11/11 08:29:15;;;;;;;30.92;19.48;;;8.80;99.90;;;;;;5107175;28;20592;-43
2021/11/11 08:31:41;;;;;;;27.80;19.20;;;8.80;99.90;;;;;;5107249;28;20052;-42
2021/11/11 08:34:06;;;;;;;28.02;19.70;;;8.80;99.90;;;;;;5106966;28;20015;-43
2021/11/11 08:36:35;;;;;;;36.15;20.80;;;8.80;99.90;;;;;;5107419;28;20458;-43
2021/11/11 08:39:00;;;;;;;29.83;19.02;;;8.80;99.90;;;;;;5106298;28;20509;-42
2021/11/11 08:41:29;;;;;;;28.88;19.15;;;8.80;99.90;;;;;;5107509;28;20019;-42
2021/11/11 08:43:57;;;;;;;32.53;20.27;;;8.80;99.90;;;;;;5106868;28;20493;-43
2021/11/11 08:46:23;;;;;;;29.38;19.10;;;8.80;99.90;;;;;;5106165;28;20035;-44
2021/11/11 08:48:49;;;;;;;30.20;19.23;;;8.80;99.90;;;;;;5108409;28;20038;-43
2021/11/11 08:51:15;;;;;;;29.33;19.27;;;8.80;99.90;;;;;;5106815;28;20028;-44
2021/11/11 08:53:41;;;;;;;35.28;22.00;;;8.80;99.90;;;;;;5106854;28;20023;-44
2021/11/11 08:56:09;;;;;;;35.58;24.30;;;8.90;99.90;;;;;;5107020;28;20378;-44
2021/11/11 08:58:36;;;;;;;34.80;21.48;;;8.90;99.90;;;;;;5107341;28;20061;-44
2021/11/11 09:01:05;;;;;;;37.60;22.33;;;9.00;99.90;;;;;;5105885;28;20024;-44
2021/11/11 09:03:32;;;;;;;37.25;22.00;;;9.00;99.90;;;;;;5095682;28;20059;-43
2021/11/11 09:06:02;;;;;;;34.08;21.02;;;9.00;99.90;;;;;;5106532;28;20090;-43
2021/11/11 09:08:27;;;;;;;31.48;19.20;;;9.00;99.90;;;;;;5106406;28;20052;-44
2021/11/11 09:10:54;;;;;;;33.25;21.27;;;9.00;99.90;;;;;;5106841;28;20463;-43
2021/11/11 09:13:19;;;;;;;33.65;20.67;;;9.10;99.90;;;;;;5107708;28;20020;-43
2021/11/11 09:15:45;;;;;;;33.42;20.70;;;9.10;99.90;;;;;;5105607;28;20456;-43
2021/11/11 09:18:12;;;;;;;32.25;19.10;;;9.10;99.90;;;;;;5106572;28;20044;-43
2021/11/11 09:20:39;;;;;;;32.70;20.10;;;9.20;99.90;;;;;;5106357;28;20019;-43
2021/11/11 09:23:07;;;;;;;33.63;19.90;;;9.20;99.90;;;;;;5104446;28;20031;-43
2021/11/11 09:25:34;;;;;;;29.42;18.55;;;9.30;99.90;;;;;;5106451;28;20030;-45
2021/11/11 09:28:01;;;;;;;32.17;19.70;;;9.30;99.90;;;;;;5106999;28;20020;-43
2021/11/11 09:30:30;;;;;;;36.17;20.83;;;9.40;99.90;;;;;;5105622;28;20469;-43
2021/11/11 09:32:56;;;;;;;34.97;20.73;;;9.40;99.90;;;;;;5106238;28;20015;-43
2021/11/11 09:35:22;;;;;;;36.92;21.25;;;9.50;99.90;;;;;;5106415;28;20031;-44
2021/11/11 09:37:48;;;;;;;32.25;19.20;;;9.60;99.90;;;;;;5105832;28;20055;-43
2021/11/11 09:40:17;;;;;;;28.10;17.77;;;9.60;99.90;;;;;;5106739;28;20020;-43
2021/11/11 09:42:44;;;;;;;31.65;18.83;;;9.60;99.90;;;;;;5105137;28;20095;-43
2021/11/11 09:45:13;;;;;;;30.42;19.70;;;9.60;99.90;;;;;;5106602;28;20027;-42
2021/11/11 09:47:40;;;;;;;35.10;20.10;;;9.60;99.90;;;;;;5106379;28;20028;-44
2021/11/11 09:50:07;;;;;;;30.20;19.10;;;9.70;99.90;;;;;;5104884;28;20474;-43
2021/11/11 09:52:40;;;;;;;28.67;19.25;;;9.70;99.90;;;;;;5105433;28;20116;-43
2021/11/11 10:00:40;;;;;;;29.15;18.02;;;9.70;99.90;;;;;;5090271;28;20089;-44
2021/11/11 10:03:06;;;;;;;29.45;18.17;;;9.70;99.90;;;;;;5106148;28;20028;-44
2021/11/11 10:05:33;;;;;;;27.02;17.40;;;9.80;99.90;;;;;;5109155;28;20035;-43
2021/11/11 10:08:01;;;;;;;30.45;18.30;;;9.80;99.90;;;;;;5110163;27;20016;-42
2021/11/11 10:10:47;;;;;;;30.35;20.40;;;9.80;99.90;;;;;;5109375;28;20111;-43
2021/11/11 10:13:20;;;;;;;33.03;20.30;;;9.80;99.90;;;;;;5109053;28;20031;-43
2021/11/11 10:16:09;;;;;;;30.83;19.42;;;9.80;99.90;;;;;;5109173;27;20066;-43
2021/11/11 10:18:40;;;;;;;29.55;19.65;;;9.80;99.90;;;;;;5108289;28;20028;-43
2021/11/11 10:24:19;;;;;;;28.65;18.00;;;9.90;99.90;;;;;;5108073;28;20467;-43
2021/11/11 10:27:05;;;;;;;28.45;19.02;;;10.00;99.90;;;;;;5109230;28;20027;-43
2021/11/11 10:29:38;;;;;;;28.17;18.50;;;10.00;99.90;;;;;;5109571;28;20034;-44
2021/11/11 10:32:11;;;;;;;29.98;19.10;;;10.10;99.90;;;;;;5109273;28;20024;-44
2021/11/11 10:34:51;;;;;;;;;;;10.10;99.90;;;;;;5110208;28;20020;-43
2021/11/11 10:37:17;;;;;;;28.02;18.48;;;10.20;99.90;;;;;;5110292;28;19903;-43
2021/11/11 10:39:57;;;;;;;27.85;18.25;;;10.20;99.90;;;;;;5108501;28;20018;-44
2021/11/11 10:42:26;;;;;;;32.45;20.20;;;10.20;99.90;;;;;;5109618;27;20034;-43
2021/11/11 10:44:56;;;;;;;31.13;19.58;;;10.20;99.90;;;;;;5109763;28;20027;-44
2021/11/11 10:47:34;;;;;;;32.53;19.85;;;10.30;99.90;;;;;;5109129;28;20038;-43
2021/11/11 10:50:02;;;;;;;22.63;16.00;;;10.40;99.90;;;;;;5109356;28;20035;-43
2021/11/11 10:52:40;;;;;;;29.23;18.35;;;10.40;99.90;;;;;;5108821;28;20035;-43
2021/11/11 10:55:25;;;;;;;29.17;18.42;;;10.50;99.90;;;;;;5109452;28;20051;-43
2021/11/11 10:57:55;;;;;;;28.13;18.30;;;10.50;99.90;;;;;;5109227;28;20479;-43
2021/11/11 11:00:37;;;;;;;30.88;18.55;;;10.50;99.90;;;;;;5108782;28;20071;-43
2021/11/11 11:03:12;;;;;;;29.95;18.10;;;10.60;99.90;;;;;;5109707;28;20024;-43
2021/11/11 11:05:54;;;;;;;30.38;19.30;;;10.60;99.90;;;;;;5108853;28;20058;-43
2021/11/11 11:08:34;;;;;;;26.75;17.35;;;10.60;99.90;;;;;;5108577;28;20581;-43
2021/11/11 11:11:03;;;;;;;35.08;18.90;;;10.60;99.90;;;;;;5108182;28;20039;-43
2021/11/11 11:13:41;;;;;;;27.83;17.48;;;10.70;99.90;;;;;;5108151;28;20032;-43
2021/11/11 11:16:11;;;;;;;27.33;18.60;;;10.70;99.90;;;;;;5108053;28;20487;-43
2021/11/11 11:18:46;;;;;;;26.98;16.98;;;10.70;99.90;;;;;;5116428;27;20033;-43
2021/11/11 11:21:22;;;;;;;28.55;18.60;;;10.80;99.90;;;;;;5105386;28;20768;-43
2021/11/11 11:23:50;;;;;;;29.00;18.48;;;10.80;99.90;;;;;;5109263;28;20027;-43
2021/11/11 11:26:27;;;;;;;30.10;19.52;;;10.80;99.90;;;;;;5108454;28;20027;-43
2021/11/11 11:29:02;;;;;;;26.23;17.42;;;10.80;99.90;;;;;;5105701;28;20475;-43
2021/11/11 11:31:46;;;;;;;33.03;20.30;;;10.80;99.90;;;;;;5108826;28;20026;-43
2021/11/11 11:34:18;;;;;;;30.58;19.00;;;10.80;99.90;;;;;;5108801;28;20104;-43
2021/11/11 11:36:52;;;;;;;31.13;19.92;;;10.80;99.90;;;;;;5106502;28;20024;-42
2021/11/11 11:39:26;;;;;;;31.00;18.83;;;10.80;99.90;;;;;;5108914;28;20024;-43
2021/11/11 11:41:53;;;;;;;31.38;19.08;;;10.70;99.90;;;;;;5107585;28;20745;-43
2021/11/11 11:44:21;;;;;;;30.48;19.67;;;10.80;99.90;;;;;;5108105;28;20028;-42
2021/11/11 11:46:56;;;;;;;30.10;19.65;;;10.70;99.90;;;;;;5108045;28;20040;-43
2021/11/11 11:49:23;;;;;;;31.35;18.85;;;10.80;99.90;;;;;;5107685;28;20024;-43
2021/11/11 11:51:49;;;;;;;27.35;19.17;;;10.70;99.90;;;;;;5108245;28;20031;-44
2021/11/11 11:54:24;;;;;;;29.50;18.55;;;10.80;99.90;;;;;;5117300;27;20427;-43
2021/11/11 11:56:54;;;;;;;30.08;18.77;;;10.80;99.90;;;;;;5111054;27;20489;-44
2021/11/11 11:59:23;;;;;;;25.00;16.73;;;10.80;99.90;;;;;;5107338;28;20043;-44
2021/11/11 12:12:36;;;;;;;29.10;19.48;;;10.90;99.90;;;;;;5107161;28;20050;-43
2021/11/11 12:29:45;;;;;;;30.08;18.80;;;10.80;99.90;;;;;;5095669;28;20596;-43
2021/11/11 12:40:31;;;;;;;29.23;19.83;;;10.80;99.90;;;;;;5106163;28;20042;-44
2021/11/11 12:43:10;;;;;;;27.70;18.60;;;10.90;99.90;;;;;;5106001;28;20031;-44
2021/11/11 12:45:36;;;;;;;28.63;19.17;;;10.90;99.90;;;;;;5106265;28;20040;-43
2021/11/11 12:48:11;;;;;;;31.52;21.13;;;10.90;99.90;;;;;;5107264;28;20027;-43
2021/11/11 12:50:59;;;;;;;33.08;22.15;;;10.90;99.90;;;;;;5107160;28;20024;-43
2021/11/11 12:53:44;;;;;;;29.42;20.05;;;11.00;99.90;;;;;;5106337;28;20037;-43
2021/11/11 12:56:16;;;;;;;28.80;19.10;;;11.00;99.90;;;;;;5106571;28;20031;-45
2021/11/11 12:58:43;;;;;;;25.48;19.20;;;11.10;99.90;;;;;;5107394;28;20050;-44
2021/11/11 13:01:16;;;;;;;27.27;19.30;;;11.10;99.90;;;;;;5106178;28;20363;-44
2021/11/11 13:04:01;;;;;;;28.60;20.17;;;11.20;99.90;;;;;;5107148;28;20408;-44
2021/11/11 13:06:46;;;;;;;28.42;19.95;;;11.20;99.90;;;;;;5105240;28;20047;-44
2021/11/11 13:09:19;;;;;;;31.15;20.13;;;11.20;99.90;;;;;;5106969;28;20317;-44
2021/11/11 13:11:47;;;;;;;30.67;17.63;;;11.30;99.90;;;;;;5105148;28;20063;-44
2021/11/11 13:14:20;;;;;;;27.33;17.80;;;11.30;99.90;;;;;;5103780;28;20039;-43
2021/11/11 13:16:59;;;;;;;31.08;19.35;;;11.30;99.90;;;;;;5106812;28;20024;-43
2021/11/11 13:20:01;;;;;;;25.42;17.73;;;11.30;99.90;;;;;;5106648;28;20032;-43
2021/11/11 13:22:40;;;;;;;28.63;18.75;;;11.30;99.90;;;;;;5085751;28;20077;-43
2021/11/11 16:26:33;;;;;;;25.00;16.77;;;11.10;99.90;;;;;;5083636;28;20074;-43
2021/11/11 16:29:03;;;;;;;26.23;18.38;;;11.10;99.90;;;;;;5108174;28;20048;-43
2021/11/11 16:31:29;;;;;;;27.85;19.20;;;11.10;99.90;;;;;;5105931;28;20012;-43
2021/11/11 16:33:59;;;;;;;32.30;20.40;;;11.10;99.90;;;;;;5107243;28;20459;-43
2021/11/11 16:36:27;;;;;;;30.17;19.73;;;11.10;99.90;;;;;;5107213;28;20028;-43
2021/11/11 16:38:53;;;;;;;29.05;18.50;;;11.10;99.90;;;;;;5107046;28;20031;-42
2021/11/11 16:41:20;;;;;;;26.80;18.02;;;11.10;99.90;;;;;;5110029;28;20032;-43
2021/11/11 16:43:46;;;;;;;31.00;19.00;;;11.00;99.90;;;;;;5107698;28;20024;-43
2021/11/11 16:46:12;;;;;;;26.98;17.92;;;11.00;99.90;;;;;;5106689;28;20084;-43
2021/11/11 16:48:39;;;;;;;36.00;20.25;;;11.10;99.90;;;;;;5107177;28;20193;-43